createdAt,value
2023-06-03T00:00:14.932Z,16.72
2023-06-03T00:02:45.392Z,16.82
2023-06-03T00:05:19.319Z,16.67
2023-06-03T00:07:49.471Z,16.60
2023-06-03T00:10:19.977Z,16.50
2023-06-03T00:12:50.128Z,16.48
2023-06-03T00:15:23.646Z,16.56
2023-06-03T00:17:53.502Z,16.55
2023-06-03T00:20:26.520Z,16.44
2023-06-03T00:22:56.889Z,16.33
2023-06-03T00:25:27.350Z,16.37
2023-06-03T00:27:57.477Z,16.30
2023-06-03T00:30:30.569Z,16.26
2023-06-03T00:33:01.916Z,16.18
2023-06-03T00:35:32.560Z,16.15
2023-06-03T00:38:02.746Z,16.20
2023-06-03T00:40:33.501Z,16.08
2023-06-03T00:43:03.754Z,16.08
2023-06-03T00:45:36.907Z,16.08
2023-06-03T00:48:07.532Z,16.09
2023-06-03T00:50:38.113Z,15.99
2023-06-03T00:53:09.178Z,15.87
2023-06-03T00:55:39.497Z,15.91
2023-06-03T00:58:09.779Z,15.87
2023-06-03T01:00:43.027Z,15.80
2023-06-03T01:03:15.017Z,15.81
2023-06-03T01:05:47.145Z,15.76
2023-06-03T01:08:27.414Z,15.81
2023-06-03T01:11:05.344Z,15.73
2023-06-03T01:13:43.030Z,15.68
2023-06-03T01:16:17.150Z,15.55
2023-06-03T01:18:48.914Z,15.59
2023-06-03T01:21:19.705Z,15.51
2023-06-03T01:23:52.884Z,15.47
2023-06-03T01:26:23.608Z,15.46
2023-06-03T01:28:53.822Z,15.42
2023-06-03T01:31:24.117Z,15.37
2023-06-03T01:33:54.441Z,15.25
2023-06-03T01:36:24.744Z,15.25
2023-06-03T01:38:58.104Z,15.30
2023-06-03T01:41:29.618Z,15.12
2023-06-03T01:44:00.004Z,15.21
2023-06-03T01:46:30.773Z,15.10
2023-06-03T01:49:01.143Z,15.02
2023-06-03T01:51:31.341Z,15.00
2023-06-03T01:54:05.218Z,14.94
2023-06-03T01:56:35.750Z,14.89
2023-06-03T01:59:06.382Z,14.92
2023-06-03T02:01:37.575Z,14.81
2023-06-03T02:04:07.755Z,14.82
2023-06-03T02:06:37.933Z,14.75
2023-06-03T02:09:13.749Z,14.77
2023-06-03T02:11:46.190Z,14.73
2023-06-03T02:14:16.475Z,14.56
2023-06-03T02:16:46.885Z,14.50
2023-06-03T02:19:20.435Z,14.52
2023-06-03T02:21:52.318Z,14.52
2023-06-03T02:24:25.238Z,14.51
2023-06-03T02:26:55.678Z,14.38
2023-06-03T02:29:27.543Z,14.20
2023-06-03T02:31:59.483Z,14.32
2023-06-03T02:34:30.185Z,14.35
2023-06-03T02:37:00.344Z,14.34
2023-06-03T02:39:33.268Z,14.23
2023-06-03T02:42:03.483Z,14.18
2023-06-03T02:44:33.797Z,14.20
2023-06-03T02:47:04.286Z,14.18
2023-06-03T02:49:34.539Z,14.12
2023-06-03T02:52:04.755Z,14.05
2023-06-03T02:54:37.587Z,14.13
2023-06-03T02:57:08.936Z,14.06
2023-06-03T02:59:39.379Z,14.02
2023-06-03T03:02:10.115Z,13.97
2023-06-03T03:04:40.454Z,13.97
2023-06-03T03:07:11.251Z,13.97
2023-06-03T03:09:44.078Z,13.91
2023-06-03T03:12:14.972Z,14.01
2023-06-03T03:14:48.907Z,13.81
2023-06-03T03:17:22.376Z,13.81
2023-06-03T03:19:55.291Z,13.85
2023-06-03T03:22:26.036Z,13.90
2023-06-03T03:24:59.533Z,13.82
2023-06-03T03:27:30.408Z,13.84
2023-06-03T03:30:03.554Z,13.82
2023-06-03T03:32:36.635Z,13.91
2023-06-03T03:35:18.435Z,13.91
2023-06-03T03:38:03.460Z,13.81
2023-06-03T03:40:40.969Z,13.95
2023-06-03T03:43:19.535Z,13.88
2023-06-03T03:45:51.150Z,13.80
2023-06-03T03:48:26.988Z,13.90
2023-06-03T03:50:58.749Z,13.93
2023-06-03T03:53:38.116Z,14.02
2023-06-03T03:56:24.345Z,14.02
2023-06-03T03:58:59.918Z,14.07
2023-06-03T04:01:42.549Z,14.10
2023-06-03T04:04:41.699Z,14.18
2023-06-03T04:07:13.003Z,14.32
2023-06-03T04:09:43.212Z,14.24
2023-06-03T04:12:22.008Z,14.47
2023-06-03T04:14:55.277Z,14.47
2023-06-03T04:17:28.336Z,14.48
2023-06-03T04:20:00.050Z,14.66
2023-06-03T04:22:32.855Z,14.72
2023-06-03T04:25:04.384Z,14.75
2023-06-03T04:27:47.010Z,14.68
2023-06-03T04:30:20.924Z,14.75
2023-06-03T04:32:51.440Z,14.84
2023-06-03T04:35:25.350Z,14.93
2023-06-03T04:37:56.043Z,15.02
2023-06-03T04:40:28.352Z,15.00
2023-06-03T04:43:04.938Z,15.06
2023-06-03T04:45:37.069Z,15.21
2023-06-03T04:48:09.025Z,15.17
2023-06-03T04:50:40.381Z,15.46
2023-06-03T04:53:12.614Z,15.66
2023-06-03T04:55:46.581Z,15.79
2023-06-03T04:58:25.726Z,15.91
2023-06-03T05:00:58.318Z,15.81
2023-06-03T05:03:28.762Z,16.08
2023-06-03T05:05:59.238Z,16.21
2023-06-03T05:08:29.444Z,16.12
2023-06-03T05:10:59.727Z,16.12
2023-06-03T05:13:32.730Z,16.45
2023-06-03T05:16:04.402Z,16.48
2023-06-03T05:18:36.882Z,16.63
2023-06-03T05:21:07.873Z,16.80
2023-06-03T05:23:38.635Z,16.54
2023-06-03T05:26:10.156Z,16.68
2023-06-03T05:28:43.154Z,16.61
2023-06-03T05:31:15.055Z,16.69
2023-06-03T05:33:45.819Z,16.81
2023-06-03T05:36:20.238Z,16.89
2023-06-03T05:38:53.948Z,16.75
2023-06-03T05:41:24.216Z,17.03
2023-06-03T05:43:57.777Z,17.28
2023-06-03T05:46:28.147Z,17.10
2023-06-03T05:48:58.398Z,17.14
2023-06-03T05:51:29.762Z,17.17
2023-06-03T05:54:00.048Z,17.52
2023-06-03T05:56:33.553Z,17.73
2023-06-03T05:59:09.731Z,17.83
2023-06-03T06:01:43.609Z,18.06
2023-06-03T06:04:14.589Z,17.57
2023-06-03T06:06:47.308Z,17.52
2023-06-03T06:09:17.656Z,17.72
2023-06-03T06:11:47.854Z,18.12
2023-06-03T06:14:21.325Z,18.03
2023-06-03T06:16:53.242Z,18.31
2023-06-03T06:19:35.466Z,18.00
2023-06-03T06:22:19.277Z,18.01
2023-06-03T06:24:49.196Z,18.45
2023-06-03T06:27:19.486Z,18.49
2023-06-03T06:29:53.833Z,18.32
2023-06-03T06:32:26.968Z,18.06
2023-06-03T06:35:01.914Z,18.33
2023-06-03T06:37:34.649Z,18.69
2023-06-03T06:40:04.976Z,18.43
2023-06-03T06:42:43.807Z,18.79
2023-06-03T06:45:38.961Z,18.89
2023-06-03T06:48:12.635Z,19.10
2023-06-03T06:50:50.523Z,19.45
2023-06-03T06:53:23.756Z,19.66
2023-06-03T06:55:58.198Z,19.10
2023-06-03T06:58:51.006Z,19.43
2023-06-03T07:01:24.000Z,19.66
2023-06-03T07:03:58.302Z,19.75
2023-06-03T07:06:28.763Z,19.99
2023-06-03T07:09:04.032Z,19.43
2023-06-03T07:11:43.887Z,19.30
2023-06-03T07:14:14.164Z,19.51
2023-06-03T07:16:48.288Z,19.27
2023-06-03T07:19:19.850Z,19.46
2023-06-03T07:21:55.204Z,19.93
2023-06-03T07:24:28.253Z,19.67
2023-06-03T07:26:58.394Z,19.83
2023-06-03T07:29:28.646Z,20.37
2023-06-03T07:32:06.242Z,19.43
2023-06-03T07:34:38.216Z,19.86
2023-06-03T07:37:14.097Z,19.93
2023-06-03T07:39:46.464Z,19.55
2023-06-03T07:42:23.764Z,19.68
2023-06-03T07:45:01.218Z,19.83
2023-06-03T07:47:36.249Z,20.27
2023-06-03T07:50:16.065Z,19.67
2023-06-03T07:52:46.264Z,19.63
2023-06-03T07:55:17.765Z,19.26
2023-06-03T07:57:50.115Z,19.98
2023-06-03T08:00:22.380Z,20.19
2023-06-03T08:02:55.583Z,20.28
2023-06-03T08:05:36.181Z,19.87
2023-06-03T08:08:10.109Z,20.28
2023-06-03T08:10:40.252Z,20.34
2023-06-03T08:13:10.471Z,20.69
2023-06-03T08:15:42.473Z,20.94
2023-06-03T08:18:25.303Z,21.07
2023-06-03T08:20:55.573Z,20.22
2023-06-03T08:23:25.844Z,20.68
2023-06-03T08:25:56.003Z,20.30
2023-06-03T08:28:26.374Z,20.68
2023-06-03T08:30:58.130Z,20.48
2023-06-03T08:33:33.056Z,20.22
2023-06-03T08:36:03.438Z,20.03
2023-06-03T08:38:33.860Z,20.48
2023-06-03T08:41:04.430Z,20.60
2023-06-03T08:43:40.820Z,20.73
2023-06-03T08:46:25.026Z,21.45
2023-06-03T08:49:05.529Z,21.13
2023-06-03T08:51:43.154Z,21.46
2023-06-03T08:54:18.131Z,21.83
2023-06-03T08:56:53.704Z,21.18
2023-06-03T08:59:25.692Z,21.51
2023-06-03T09:02:00.490Z,21.57
2023-06-03T09:04:35.094Z,21.55
2023-06-03T09:07:08.309Z,21.28
2023-06-03T09:09:39.682Z,21.47
2023-06-03T09:12:12.210Z,21.98
2023-06-03T09:14:44.328Z,21.95
2023-06-03T09:17:17.079Z,21.61
2023-06-03T09:19:50.845Z,21.15
2023-06-03T09:22:21.707Z,21.71
2023-06-03T09:24:51.868Z,22.55
2023-06-03T09:27:22.016Z,22.57
2023-06-03T09:29:52.439Z,21.97
2023-06-03T09:32:22.743Z,22.75
2023-06-03T09:34:57.412Z,22.26
2023-06-03T09:37:30.397Z,22.79
2023-06-03T09:40:05.454Z,22.13
2023-06-03T09:42:45.589Z,22.45
2023-06-03T09:45:27.549Z,22.63
2023-06-03T09:47:58.120Z,22.93
2023-06-03T09:50:32.332Z,23.16
2023-06-03T09:53:03.095Z,23.74
2023-06-03T09:55:34.612Z,23.94
2023-06-03T09:58:10.825Z,23.73
2023-06-03T10:00:51.063Z,23.40
2023-06-03T10:03:22.418Z,22.46
2023-06-03T10:05:59.905Z,23.85
2023-06-03T10:08:36.116Z,24.11
2023-06-03T10:11:06.740Z,23.14
2023-06-03T10:13:38.456Z,23.00
2023-06-03T10:16:14.130Z,22.63
2023-06-03T10:18:52.669Z,22.68
2023-06-03T10:21:26.168Z,22.56
2023-06-03T10:24:01.544Z,22.27
2023-06-03T10:26:35.990Z,22.53
2023-06-03T10:29:07.241Z,23.30
2023-06-03T10:31:40.439Z,23.97
2023-06-03T10:34:10.577Z,23.78
2023-06-03T10:36:45.038Z,22.95
2023-06-03T10:39:15.399Z,23.48
2023-06-03T10:41:47.290Z,23.89
2023-06-03T10:44:20.480Z,23.02
2023-06-03T10:46:59.260Z,22.80
2023-06-03T10:49:32.774Z,23.38
2023-06-03T10:52:33.943Z,23.07
2023-06-03T10:55:17.027Z,23.34
2023-06-03T10:57:52.112Z,23.57
2023-06-03T11:00:52.045Z,22.93
2023-06-03T11:03:24.315Z,23.65
2023-06-03T11:05:56.862Z,24.02
2023-06-03T11:09:08.001Z,23.87
2023-06-03T11:12:08.286Z,22.93
2023-06-03T11:15:00.833Z,23.86
2023-06-03T11:17:32.122Z,24.56
2023-06-03T11:20:06.179Z,23.66
2023-06-03T11:22:50.374Z,24.41
2023-06-03T11:25:41.801Z,24.03
2023-06-03T11:28:38.312Z,24.27
2023-06-03T11:31:10.879Z,23.06
2023-06-03T11:33:41.105Z,23.10
2023-06-03T11:36:45.573Z,23.13
2023-06-03T11:39:16.412Z,23.60
2023-06-03T11:42:16.523Z,24.07
2023-06-03T11:44:53.577Z,24.54
2023-06-03T11:47:25.156Z,24.33
2023-06-03T11:49:55.423Z,24.47
2023-06-03T11:52:25.750Z,24.25
2023-06-03T11:54:59.085Z,24.32
2023-06-03T11:57:34.999Z,24.94
2023-06-03T12:00:09.686Z,25.10
2023-06-03T12:02:43.998Z,25.36
2023-06-03T12:05:14.499Z,24.97
2023-06-03T12:07:45.092Z,24.79
2023-06-03T12:10:16.129Z,24.31
2023-06-03T12:12:55.978Z,23.99
2023-06-03T12:15:27.923Z,23.83
2023-06-03T12:18:02.507Z,24.15
2023-06-03T12:20:33.842Z,24.41
2023-06-03T12:23:05.161Z,24.23
2023-06-03T12:25:36.920Z,24.19
2023-06-03T12:28:30.352Z,24.07
2023-06-03T12:31:00.829Z,23.93
2023-06-03T12:33:42.750Z,24.44
2023-06-03T12:36:13.583Z,23.82
2023-06-03T12:39:00.068Z,24.33
2023-06-03T12:41:30.652Z,24.27
2023-06-03T12:44:07.893Z,24.32
2023-06-03T12:46:43.014Z,23.39
2023-06-03T12:49:16.866Z,23.46
2023-06-03T12:51:47.131Z,23.86
2023-06-03T12:54:17.791Z,24.28
2023-06-03T12:56:49.838Z,24.30
2023-06-03T12:59:22.718Z,24.23
2023-06-03T13:01:52.936Z,24.27
2023-06-03T13:04:24.588Z,24.02
2023-06-03T13:06:59.352Z,24.28
2023-06-03T13:09:39.498Z,24.30
2023-06-03T13:12:15.181Z,23.91
2023-06-03T13:14:49.107Z,23.80
2023-06-03T13:17:24.133Z,23.65
2023-06-03T13:19:58.078Z,24.01
2023-06-03T13:22:31.812Z,23.18
2023-06-03T13:25:08.721Z,23.93
2023-06-03T13:27:43.755Z,24.15
2023-06-03T13:30:20.889Z,23.92
2023-06-03T13:33:03.144Z,24.00
2023-06-03T13:35:43.908Z,24.10
2023-06-03T13:38:16.845Z,24.15
2023-06-03T13:40:52.359Z,23.57
2023-06-03T13:43:26.652Z,23.81
2023-06-03T13:46:10.666Z,23.69
2023-06-03T13:48:44.660Z,23.43
2023-06-03T13:51:14.836Z,23.54
2023-06-03T13:53:45.050Z,23.64
2023-06-03T13:56:15.251Z,23.91
2023-06-03T13:58:47.327Z,24.16
2023-06-03T14:01:21.743Z,24.47
2023-06-03T14:03:52.071Z,24.25
2023-06-03T14:06:22.592Z,24.16
2023-06-03T14:08:53.091Z,24.38
2023-06-03T14:11:23.485Z,24.28
2023-06-03T14:13:54.430Z,24.30
2023-06-03T14:16:28.172Z,24.47
2023-06-03T14:18:58.715Z,24.13
2023-06-03T14:21:31.475Z,23.55
2023-06-03T14:24:01.837Z,23.43
2023-06-03T14:26:39.315Z,23.69
2023-06-03T14:29:13.659Z,23.36
2023-06-03T14:31:48.090Z,23.67
2023-06-03T14:34:23.176Z,23.99
2023-06-03T14:36:53.354Z,23.86
2023-06-03T14:39:23.498Z,23.88
2023-06-03T14:41:53.760Z,24.06
2023-06-03T14:44:23.938Z,24.36
2023-06-03T14:46:56.847Z,24.18
2023-06-03T14:49:27.576Z,24.31
2023-06-03T14:51:58.290Z,24.33
2023-06-03T14:54:33.377Z,23.93
2023-06-03T14:57:03.556Z,23.81
2023-06-03T14:59:34.861Z,23.73
2023-06-03T15:02:12.555Z,23.52
2023-06-03T15:04:43.014Z,23.42
2023-06-03T15:07:13.438Z,24.04
2023-06-03T15:09:43.699Z,24.22
2023-06-03T15:12:16.383Z,23.72
2023-06-03T15:14:47.269Z,23.86
2023-06-03T15:17:20.124Z,23.88
2023-06-03T15:19:50.358Z,23.98
2023-06-03T15:22:20.620Z,24.03
2023-06-03T15:24:50.743Z,24.15
2023-06-03T15:27:21.574Z,24.08
2023-06-03T15:29:51.757Z,24.10
2023-06-03T15:32:24.728Z,23.57
2023-06-03T15:34:54.989Z,23.01
2023-06-03T15:37:25.275Z,22.69
2023-06-03T15:39:55.448Z,22.98
2023-06-03T15:42:25.739Z,23.33
2023-06-03T15:44:55.958Z,23.17
2023-06-03T15:47:28.710Z,23.39
2023-06-03T15:49:58.930Z,23.42
2023-06-03T15:52:29.207Z,23.42
2023-06-03T15:55:00.586Z,23.40
2023-06-03T15:57:30.706Z,23.26
2023-06-03T16:00:00.893Z,23.03
2023-06-03T16:02:33.774Z,23.08
2023-06-03T16:05:04.743Z,23.02
2023-06-03T16:07:34.918Z,23.40
2023-06-03T16:10:06.506Z,23.16
2023-06-03T16:12:41.587Z,23.14
2023-06-03T16:15:12.686Z,22.95
2023-06-03T16:17:54.890Z,22.92
2023-06-03T16:20:30.385Z,22.85
2023-06-03T16:23:05.828Z,22.85
2023-06-03T16:25:37.363Z,22.62
2023-06-03T16:28:11.077Z,22.78
2023-06-03T16:30:48.646Z,22.46
2023-06-03T16:33:25.272Z,22.56
2023-06-03T16:35:59.124Z,22.44
2023-06-03T16:38:30.000Z,22.32
2023-06-03T16:41:00.254Z,22.57
2023-06-03T16:43:30.609Z,22.56
2023-06-03T16:46:03.309Z,22.25
2023-06-03T16:48:43.865Z,22.36
2023-06-03T16:51:17.575Z,22.31
2023-06-03T16:53:48.195Z,22.23
2023-06-03T16:56:18.370Z,22.28
2023-06-03T16:58:48.569Z,22.27
2023-06-03T17:01:18.910Z,22.11
2023-06-03T17:03:51.743Z,22.09
2023-06-03T17:06:21.962Z,22.27
2023-06-03T17:08:52.146Z,22.04
2023-06-03T17:11:22.405Z,21.79
2023-06-03T17:13:52.636Z,21.83
2023-06-03T17:16:22.864Z,21.65
2023-06-03T17:18:55.657Z,21.60
2023-06-03T17:21:25.846Z,21.53
2023-06-03T17:23:56.348Z,21.59
2023-06-03T17:26:26.851Z,21.45
2023-06-03T17:28:56.989Z,21.27
2023-06-03T17:31:27.317Z,21.33
2023-06-03T17:34:00.268Z,21.25
2023-06-03T17:36:30.531Z,21.24
2023-06-03T17:39:00.874Z,21.13
2023-06-03T17:41:31.036Z,21.11
2023-06-03T17:44:01.269Z,21.00
2023-06-03T17:46:31.585Z,20.83
2023-06-03T17:49:04.418Z,20.94
2023-06-03T17:51:34.879Z,20.87
2023-06-03T17:54:05.143Z,20.82
2023-06-03T17:56:35.402Z,20.73
2023-06-03T17:59:05.784Z,20.68
2023-06-03T18:01:36.074Z,20.60
2023-06-03T18:04:08.965Z,20.53
2023-06-03T18:06:39.224Z,20.49
2023-06-03T18:09:09.539Z,20.41
2023-06-03T18:11:39.711Z,20.40
2023-06-03T18:14:10.009Z,20.35
2023-06-03T18:16:40.177Z,20.27
2023-06-03T18:19:13.042Z,20.23
2023-06-03T18:21:44.828Z,20.09
2023-06-03T18:24:15.008Z,19.97
2023-06-03T18:26:45.268Z,19.79
2023-06-03T18:29:18.458Z,19.66
2023-06-03T18:31:48.750Z,19.54
2023-06-03T18:34:22.641Z,19.43
2023-06-03T18:36:52.924Z,19.25
2023-06-03T18:39:23.238Z,19.24
2023-06-03T18:41:53.671Z,19.15
2023-06-03T18:44:23.813Z,19.02
2023-06-03T18:46:54.069Z,18.95
2023-06-03T18:49:26.912Z,18.82
2023-06-03T18:51:57.599Z,18.75
2023-06-03T18:54:27.802Z,18.75
2023-06-03T18:56:58.410Z,18.62
2023-06-03T18:59:28.622Z,18.56
2023-06-03T19:02:01.909Z,18.52
2023-06-03T19:04:34.800Z,18.58
2023-06-03T19:07:23.329Z,18.39
2023-06-03T19:09:53.776Z,18.27
2023-06-03T19:12:24.238Z,18.15
2023-06-03T19:14:54.492Z,18.15
2023-06-03T19:17:25.422Z,18.08
2023-06-03T19:20:04.918Z,18.01
2023-06-03T19:22:39.839Z,17.91
2023-06-03T19:25:21.177Z,17.81
2023-06-03T19:27:53.928Z,17.81
2023-06-03T19:30:24.241Z,17.75
2023-06-03T19:32:55.480Z,17.72
2023-06-03T19:35:44.305Z,17.70
2023-06-03T19:38:28.902Z,17.58
2023-06-03T19:41:10.971Z,17.55
2023-06-03T19:43:41.457Z,17.44
2023-06-03T19:46:14.416Z,17.36
2023-06-03T19:48:44.643Z,17.35
2023-06-03T19:51:17.634Z,17.31
2023-06-03T19:53:47.998Z,17.22
2023-06-03T19:56:24.755Z,17.20
2023-06-03T19:58:57.924Z,17.25
2023-06-03T20:01:30.481Z,17.18
2023-06-03T20:04:02.327Z,17.26
2023-06-03T20:06:36.527Z,17.14
2023-06-03T20:09:07.455Z,17.08
2023-06-03T20:11:39.179Z,17.09
2023-06-03T20:14:17.160Z,17.06
2023-06-03T20:16:47.512Z,17.03
2023-06-03T20:19:17.822Z,17.00
2023-06-03T20:21:50.682Z,16.90
2023-06-03T20:24:20.936Z,16.87
2023-06-03T20:26:51.134Z,16.78
2023-06-03T20:29:23.235Z,16.78
2023-06-03T20:31:53.500Z,16.78
2023-06-03T20:34:26.409Z,16.77
2023-06-03T20:36:59.481Z,16.70
2023-06-03T20:39:30.765Z,16.69
2023-06-03T20:42:00.937Z,16.60
2023-06-03T20:44:33.522Z,16.53
2023-06-03T20:47:04.828Z,16.43
2023-06-03T20:49:36.210Z,16.39
2023-06-03T20:52:12.030Z,16.29
2023-06-03T20:54:45.016Z,16.25
2023-06-03T20:57:18.434Z,16.21
2023-06-03T20:59:48.666Z,16.22
2023-06-03T21:02:19.062Z,16.13
2023-06-03T21:04:49.330Z,16.14
2023-06-03T21:07:30.226Z,16.12
2023-06-03T21:10:00.768Z,16.16
2023-06-03T21:12:35.848Z,16.17
2023-06-03T21:15:08.266Z,16.23
2023-06-03T21:17:43.279Z,16.28
2023-06-03T21:20:15.229Z,16.30
2023-06-03T21:22:53.970Z,16.39
2023-06-03T21:25:24.390Z,16.40
2023-06-03T21:27:56.357Z,16.44
2023-06-03T21:30:26.782Z,16.43
2023-06-03T21:32:57.050Z,16.43
2023-06-03T21:35:27.357Z,16.46
2023-06-03T21:38:00.191Z,16.52
2023-06-03T21:40:30.415Z,16.58
2023-06-03T21:43:00.712Z,16.52
2023-06-03T21:45:31.167Z,16.55
2023-06-03T21:48:01.397Z,16.62
2023-06-03T21:50:32.094Z,16.61
2023-06-03T21:53:08.589Z,16.68
2023-06-03T21:55:38.786Z,16.64
2023-06-03T21:58:09.043Z,16.68
2023-06-03T22:00:40.067Z,16.67
2023-06-03T22:03:10.957Z,16.66
2023-06-03T22:05:42.009Z,16.61
2023-06-03T22:08:15.018Z,16.61
2023-06-03T22:10:47.045Z,16.59
2023-06-03T22:13:17.410Z,16.59
2023-06-03T22:15:47.846Z,16.61
2023-06-03T22:18:18.815Z,16.52
2023-06-03T22:20:51.535Z,16.51
2023-06-03T22:23:25.885Z,16.51
2023-06-03T22:25:56.190Z,16.57
2023-06-03T22:28:26.480Z,16.54
2023-06-03T22:30:58.757Z,16.48
2023-06-03T22:33:29.388Z,16.47
2023-06-03T22:36:00.093Z,16.43
2023-06-03T22:38:32.959Z,16.39
2023-06-03T22:41:03.267Z,16.36
2023-06-03T22:43:33.665Z,16.35
2023-06-03T22:46:03.992Z,16.25
2023-06-03T22:48:34.267Z,16.17
2023-06-03T22:51:07.300Z,16.18
2023-06-03T22:53:40.292Z,16.10
2023-06-03T22:56:10.750Z,16.00
2023-06-03T22:58:40.980Z,15.93
2023-06-03T23:01:11.530Z,15.91
2023-06-03T23:03:41.881Z,15.93
2023-06-03T23:06:12.139Z,15.85
2023-06-03T23:08:44.911Z,15.93
2023-06-03T23:11:15.072Z,15.82
2023-06-03T23:13:45.272Z,15.77
2023-06-03T23:16:15.644Z,15.78
2023-06-03T23:18:45.928Z,15.77
2023-06-03T23:21:16.215Z,15.84
2023-06-03T23:23:49.079Z,15.84
2023-06-03T23:26:19.313Z,15.81
2023-06-03T23:28:49.666Z,15.77
2023-06-03T23:31:20.011Z,15.73
2023-06-03T23:33:50.218Z,15.69
2023-06-03T23:36:21.932Z,15.73
2023-06-03T23:38:54.771Z,15.66
2023-06-03T23:41:24.929Z,15.59
2023-06-03T23:43:55.241Z,15.66
2023-06-03T23:46:25.433Z,15.69
2023-06-03T23:48:55.644Z,15.67
2023-06-03T23:51:25.835Z,15.66
2023-06-03T23:54:01.825Z,15.63
2023-06-03T23:56:33.503Z,15.64
2023-06-03T23:59:04.435Z,15.66
